Time;durP1;ratioP1;P1;durP2;ratioP2;P2;SDS_P1;SDS_P2;PMS_P1;PMS_P2;Temp;Humidity;BMP_temperature;BMP_pressure;BME280_temperature;BME280_humidity;BME280_pressure;Samples;Min_cycle;Max_cycle;Signal;HPM_P1;HPM_P2
2021/11/04 00:00:32;;;;;;;14.10;12.70;;;10.90;99.90;;;;;;5135068;27;20229;-66
2021/11/04 00:02:59;;;;;;;14.35;12.38;;;10.80;99.90;;;;;;5135403;27;20218;-65
2021/11/04 00:05:27;;;;;;;13.05;11.75;;;10.80;99.90;;;;;;5135341;27;20222;-65
2021/11/04 00:07:57;;;;;;;14.75;11.95;;;10.80;99.90;;;;;;5135494;27;20560;-65
2021/11/04 00:10:26;;;;;;;13.90;11.75;;;10.70;99.90;;;;;;5135153;27;20723;-65
2021/11/04 00:12:53;;;;;;;12.65;11.32;;;10.70;99.90;;;;;;5135469;27;20218;-65
2021/11/04 00:15:20;;;;;;;13.75;11.82;;;10.70;99.90;;;;;;5135165;27;20229;-65
2021/11/04 00:17:48;;;;;;;12.63;11.43;;;10.70;99.90;;;;;;5135458;27;20237;-65
2021/11/04 00:20:17;;;;;;;16.23;14.48;;;10.70;99.90;;;;;;5134094;27;20226;-65
2021/11/04 00:22:44;;;;;;;16.73;14.85;;;10.70;99.90;;;;;;5135092;27;20218;-66
2021/11/04 00:25:11;;;;;;;15.90;14.30;;;10.70;99.90;;;;;;5134867;27;20226;-65
2021/11/04 00:27:40;;;;;;;14.38;13.00;;;10.60;99.90;;;;;;5135257;27;20229;-65
2021/11/04 00:30:09;;;;;;;16.58;13.23;;;10.60;99.90;;;;;;5134574;27;20218;-65
2021/11/04 00:32:36;;;;;;;13.40;11.98;;;10.60;99.90;;;;;;5127647;27;20222;-65
2021/11/04 00:35:04;;;;;;;15.13;13.55;;;10.60;99.90;;;;;;5134930;27;20229;-65
2021/11/04 00:37:31;;;;;;;14.18;12.68;;;10.60;99.90;;;;;;5134575;27;20230;-65
2021/11/04 00:39:57;;;;;;;14.65;13.25;;;10.60;99.90;;;;;;5134317;27;20221;-65
2021/11/04 00:42:24;;;;;;;15.68;13.88;;;10.60;99.90;;;;;;5120860;27;20226;-65
2021/11/04 00:44:53;;;;;;;15.27;13.77;;;10.60;99.90;;;;;;5125504;27;20534;-66
2021/11/04 00:47:19;;;;;;;14.40;13.00;;;10.60;99.90;;;;;;5134551;27;20234;-65
2021/11/04 00:49:46;;;;;;;13.52;12.02;;;10.60;99.90;;;;;;5134497;27;20240;-65
2021/11/04 00:52:13;;;;;;;15.50;13.90;;;10.60;99.90;;;;;;5133782;27;20240;-66
2021/11/04 00:54:40;;;;;;;15.80;13.90;;;10.60;99.90;;;;;;5134727;27;20585;-65
2021/11/04 00:57:07;;;;;;;17.80;16.02;;;10.60;99.90;;;;;;5134646;27;20226;-65
2021/11/04 00:59:34;;;;;;;15.95;14.30;;;10.60;99.90;;;;;;5132376;27;20218;-66
2021/11/04 01:02:11;;;;;;;15.95;14.05;;;10.60;99.90;;;;;;5134399;27;20225;-65
2021/11/04 01:04:38;;;;;;;14.48;12.98;;;10.60;99.90;;;;;;5134243;27;20483;-66
2021/11/04 01:07:05;;;;;;;16.65;14.38;;;10.50;99.90;;;;;;5134438;27;20556;-65
2021/11/04 01:09:32;;;;;;;16.98;14.18;;;10.60;99.90;;;;;;5133141;27;20671;-65
2021/11/04 01:11:59;;;;;;;16.30;14.80;;;10.60;99.90;;;;;;5133102;27;20265;-65
2021/11/04 01:14:26;;;;;;;18.05;14.35;;;10.60;99.90;;;;;;5131588;27;20233;-65
2021/11/04 01:16:53;;;;;;;18.05;15.05;;;10.60;99.90;;;;;;5133890;27;20214;-65
2021/11/04 01:19:21;;;;;;;17.80;15.23;;;10.60;99.90;;;;;;5133213;27;20222;-65
2021/11/04 01:21:48;;;;;;;20.58;14.73;;;10.60;99.90;;;;;;5133665;27;20229;-65
2021/11/04 01:24:15;;;;;;;17.17;15.38;;;10.70;99.90;;;;;;5133244;27;20327;-65
2021/11/04 01:26:42;;;;;;;18.10;13.95;;;10.70;99.90;;;;;;5134111;27;20228;-65
2021/11/04 01:29:09;;;;;;;22.15;15.88;;;10.70;99.90;;;;;;5133634;27;20563;-65
2021/11/04 01:31:36;;;;;;;19.55;16.15;;;10.70;99.90;;;;;;5122273;27;20227;-65
2021/11/04 01:34:06;;;;;;;17.33;15.30;;;10.70;99.90;;;;;;5113709;27;20217;-65
2021/11/04 01:36:35;;;;;;;20.05;15.25;;;10.70;99.90;;;;;;5113164;27;20264;-65
2021/11/04 01:39:03;;;;;;;20.48;17.10;;;10.70;99.90;;;;;;5113503;27;20214;-65
2021/11/04 01:41:34;;;;;;;18.42;16.50;;;10.70;99.90;;;;;;5113047;27;20223;-65
2021/11/04 01:44:02;;;;;;;16.17;14.48;;;10.60;99.90;;;;;;5113527;27;20222;-65
2021/11/04 01:46:30;;;;;;;19.65;17.63;;;10.60;99.90;;;;;;5113086;27;20219;-65
2021/11/04 01:48:57;;;;;;;19.92;16.08;;;10.60;99.90;;;;;;5113042;27;20309;-65
2021/11/04 01:51:27;;;;;;;18.10;16.25;;;10.60;99.90;;;;;;5112774;27;20248;-65
2021/11/04 01:53:56;;;;;;;17.05;15.18;;;10.50;99.90;;;;;;5113372;27;20223;-65
2021/11/04 01:56:24;;;;;;;18.95;16.48;;;10.50;99.90;;;;;;5112752;27;20704;-65
2021/11/04 01:58:55;;;;;;;18.33;16.30;;;10.50;99.90;;;;;;5113233;27;20207;-65
2021/11/04 02:01:23;;;;;;;19.33;17.30;;;10.50;99.90;;;;;;5112993;27;20688;-65
2021/11/04 02:03:59;;;;;;;19.40;17.30;;;10.50;99.90;;;;;;5113177;27;20219;-65
2021/11/04 02:06:33;;;;;;;19.50;17.30;;;10.50;99.90;;;;;;5112726;27;20287;-66
2021/11/04 02:09:09;;;;;;;21.55;18.00;;;10.50;99.90;;;;;;5112727;27;20253;-66
2021/11/04 02:11:45;;;;;;;17.55;15.73;;;10.50;99.90;;;;;;5112741;27;20666;-65
2021/11/04 02:14:19;;;;;;;19.35;17.33;;;10.40;99.90;;;;;;5113285;27;20214;-65
2021/11/04 02:16:50;;;;;;;19.55;17.05;;;10.40;99.90;;;;;;5112463;27;21277;-66
2021/11/04 02:19:37;;;;;;;19.52;16.63;;;10.40;99.90;;;;;;5112983;27;20226;-65
2021/11/04 02:22:09;;;;;;;20.40;17.48;;;10.40;99.90;;;;;;5112963;27;20211;-66
2021/11/04 02:24:44;;;;;;;18.65;16.65;;;10.40;99.90;;;;;;5113018;27;20218;-66
2021/11/04 02:27:16;;;;;;;19.80;17.58;;;10.50;99.90;;;;;;5112723;27;20236;-66
2021/11/04 02:29:48;;;;;;;20.77;17.98;;;10.40;99.90;;;;;;5112852;27;20309;-66
2021/11/04 02:32:17;;;;;;;21.15;17.42;;;10.40;99.90;;;;;;5112398;27;20564;-65
2021/11/04 02:34:47;;;;;;;22.40;18.40;;;10.40;99.90;;;;;;5113189;27;20223;-65
2021/11/04 02:37:17;;;;;;;20.02;17.63;;;10.40;99.90;;;;;;5112777;27;20572;-66
2021/11/04 02:39:46;;;;;;;18.67;16.65;;;10.40;99.90;;;;;;5113116;27;20226;-65
2021/11/04 02:42:17;;;;;;;21.40;18.63;;;10.40;99.90;;;;;;5112384;27;20222;-65
2021/11/04 02:44:48;;;;;;;19.50;17.42;;;10.40;99.90;;;;;;5112878;27;20626;-66
2021/11/04 02:47:15;;;;;;;20.02;16.95;;;10.50;99.90;;;;;;5112416;27;20241;-65
2021/11/04 02:49:45;;;;;;;24.08;19.35;;;10.50;99.90;;;;;;5112803;27;20284;-65
2021/11/04 02:52:13;;;;;;;23.27;19.88;;;10.50;99.90;;;;;;5112443;27;20223;-66
2021/11/04 02:54:40;;;;;;;28.08;23.38;;;10.50;99.90;;;;;;5112750;27;20621;-65
2021/11/04 02:57:07;;;;;;;21.70;19.52;;;10.50;99.90;;;;;;5112232;27;20223;-65
2021/11/04 02:59:35;;;;;;;23.33;19.83;;;10.50;99.90;;;;;;5112764;27;20226;-66
2021/11/04 03:02:02;;;;;;;21.25;19.00;;;10.50;99.90;;;;;;5112802;27;20672;-65
2021/11/04 03:04:29;;;;;;;24.42;21.15;;;10.50;99.90;;;;;;5112298;27;20230;-66
2021/11/04 03:06:56;;;;;;;23.63;21.13;;;10.50;99.90;;;;;;5112709;27;20222;-65
2021/11/04 03:09:23;;;;;;;23.33;20.20;;;10.50;99.90;;;;;;5112066;27;20575;-65
2021/11/04 03:11:50;;;;;;;22.55;20.20;;;10.40;99.90;;;;;;5112647;27;20218;-65
2021/11/04 03:14:18;;;;;;;25.85;22.50;;;10.40;99.90;;;;;;5112260;27;20580;-65
2021/11/04 03:16:49;;;;;;;25.73;21.42;;;10.30;99.90;;;;;;5113821;27;20255;-65
2021/11/04 03:19:18;;;;;;;23.65;20.45;;;10.30;99.90;;;;;;5121005;27;20660;-66
2021/11/04 03:21:48;;;;;;;30.27;24.40;;;10.20;99.90;;;;;;5136986;27;20947;-65
2021/11/04 03:24:18;;;;;;;29.73;22.55;;;10.20;99.90;;;;;;5136199;27;20305;-65
2021/11/04 03:26:47;;;;;;;26.50;22.83;;;10.10;99.90;;;;;;5136667;27;20218;-66
2021/11/04 03:29:15;;;;;;;29.50;24.60;;;10.10;99.90;;;;;;5132118;27;20231;-65
2021/11/04 03:31:45;;;;;;;28.83;25.05;;;10.10;99.90;;;;;;5115894;27;20219;-65
2021/11/04 03:34:15;;;;;;;29.45;24.60;;;10.10;99.90;;;;;;5115567;27;20233;-65
2021/11/04 03:36:45;;;;;;;29.92;26.67;;;10.10;99.90;;;;;;5116268;27;20229;-65
2021/11/04 03:39:13;;;;;;;30.73;25.75;;;10.10;99.90;;;;;;5115434;27;20223;-65
2021/11/04 03:41:42;;;;;;;31.83;25.95;;;10.00;99.90;;;;;;5115878;27;20218;-65
2021/11/04 03:44:09;;;;;;;30.83;26.50;;;10.00;99.90;;;;;;5115615;27;20242;-65
2021/11/04 03:46:36;;;;;;;28.85;24.38;;;9.90;99.90;;;;;;5116483;27;20226;-65
2021/11/04 03:49:04;;;;;;;33.80;28.73;;;10.00;99.90;;;;;;5136287;27;20269;-65
2021/11/04 03:51:33;;;;;;;38.97;28.50;;;10.00;99.90;;;;;;5135778;27;20563;-65
2021/11/04 03:54:00;;;;;;;31.95;27.10;;;9.90;99.90;;;;;;5136161;27;20210;-65
2021/11/04 03:56:28;;;;;;;32.15;26.85;;;9.90;99.90;;;;;;5134962;27;20703;-65
2021/11/04 03:58:55;;;;;;;35.03;29.15;;;9.90;99.90;;;;;;5117197;27;20222;-66
2021/11/04 04:01:23;;;;;;;32.38;27.73;;;9.90;99.90;;;;;;5115053;27;20601;-65
2021/11/04 04:03:49;;;;;;;35.70;29.27;;;9.80;99.90;;;;;;5115737;27;20276;-65
2021/11/04 04:06:17;;;;;;;37.38;30.30;;;9.90;99.90;;;;;;5130137;27;20676;-65
2021/11/04 04:08:47;;;;;;;42.50;30.38;;;9.90;99.90;;;;;;5135765;27;20228;-65
2021/11/04 04:11:16;;;;;;;36.75;29.33;;;9.90;99.90;;;;;;5135326;27;20710;-65
2021/11/04 04:13:42;;;;;;;42.50;29.88;;;9.90;99.90;;;;;;5135941;27;20222;-65
2021/11/04 04:16:10;;;;;;;35.03;28.25;;;9.90;99.90;;;;;;5135841;27;20228;-66
2021/11/04 04:18:37;;;;;;;37.55;28.98;;;9.90;99.90;;;;;;5135403;27;20220;-66
2021/11/04 04:21:04;;;;;;;40.17;30.27;;;9.80;99.90;;;;;;5135227;27;20221;-66
2021/11/04 04:23:31;;;;;;;36.60;29.80;;;9.90;99.90;;;;;;5132526;27;20815;-66
2021/11/04 04:26:00;;;;;;;42.85;31.98;;;9.90;99.90;;;;;;5115174;27;20674;-66
2021/11/04 04:28:27;;;;;;;39.33;29.65;;;9.90;99.90;;;;;;5114314;27;20230;-66
2021/11/04 04:30:53;;;;;;;40.40;30.08;;;9.90;99.90;;;;;;5114800;27;20226;-66
2021/11/04 04:33:21;;;;;;;35.92;29.42;;;10.00;99.90;;;;;;5114273;27;20347;-66
2021/11/04 04:35:48;;;;;;;34.47;28.65;;;10.10;99.90;;;;;;5114973;27;20222;-66
2021/11/04 04:38:15;;;;;;;38.55;30.67;;;10.10;99.90;;;;;;5114285;27;20223;-66
2021/11/04 04:40:41;;;;;;;35.75;29.13;;;10.20;99.90;;;;;;5114750;27;20581;-66
2021/11/04 04:43:10;;;;;;;39.88;30.40;;;10.20;99.90;;;;;;5114651;27;20224;-66
2021/11/04 04:45:37;;;;;;;38.03;30.67;;;10.30;99.90;;;;;;5114184;27;20241;-66
2021/11/04 04:48:04;;;;;;;40.60;30.15;;;10.20;99.90;;;;;;5114718;27;20223;-66
2021/11/04 04:50:31;;;;;;;39.35;30.13;;;10.30;99.90;;;;;;5114089;27;20222;-66
2021/11/04 04:52:58;;;;;;;37.30;30.92;;;10.30;99.90;;;;;;5114623;27;20219;-66
2021/11/04 04:55:25;;;;;;;39.20;30.50;;;10.30;99.90;;;;;;5128084;27;20571;-66
2021/11/04 04:57:52;;;;;;;37.13;28.73;;;10.40;99.90;;;;;;5134920;27;20578;-66
2021/11/04 05:00:21;;;;;;;34.08;28.98;;;10.30;99.90;;;;;;5134177;27;20226;-66
2021/11/04 05:02:48;;;;;;;37.88;29.08;;;10.30;99.90;;;;;;5133068;27;20213;-66
2021/11/04 05:05:16;;;;;;;47.95;31.88;;;10.30;99.90;;;;;;5113790;27;20230;-66
2021/11/04 05:07:44;;;;;;;37.15;29.80;;;10.30;99.90;;;;;;5114216;27;20229;-66
2021/11/04 05:10:11;;;;;;;40.60;30.92;;;10.30;99.90;;;;;;5113832;27;20223;-66
2021/11/04 05:12:39;;;;;;;39.28;29.80;;;10.30;99.90;;;;;;5113723;27;20230;-66
2021/11/04 05:15:07;;;;;;;39.08;30.80;;;10.30;99.90;;;;;;5114147;27;20237;-66
2021/11/04 05:17:35;;;;;;;36.30;29.45;;;10.30;99.90;;;;;;5113811;27;20219;-66
2021/11/04 05:20:03;;;;;;;41.30;32.55;;;10.30;99.90;;;;;;5114116;27;20712;-66
2021/11/04 05:22:30;;;;;;;38.80;30.17;;;10.30;99.90;;;;;;5113325;27;20223;-66
2021/11/04 05:24:57;;;;;;;44.03;33.03;;;10.30;99.90;;;;;;5133130;27;20222;-66
2021/11/04 05:27:24;;;;;;;45.42;34.38;;;10.30;99.90;;;;;;5133987;27;20229;-66
2021/11/04 05:29:50;;;;;;;40.22;31.60;;;10.30;99.90;;;;;;5133641;27;20695;-65
2021/11/04 05:32:18;;;;;;;40.67;31.65;;;10.30;99.90;;;;;;5122616;27;20214;-67
2021/11/04 05:34:47;;;;;;;37.88;30.65;;;10.30;99.90;;;;;;5123587;27;20301;-66
2021/11/04 05:37:13;;;;;;;40.72;30.98;;;10.30;99.90;;;;;;5134344;27;20249;-66
2021/11/04 05:39:41;;;;;;;37.10;30.33;;;10.30;99.90;;;;;;5132721;27;20233;-66
2021/11/04 05:42:09;;;;;;;45.53;33.05;;;10.30;99.90;;;;;;5133783;27;20222;-66
2021/11/04 05:44:37;;;;;;;40.30;32.58;;;10.30;99.90;;;;;;5133737;27;20287;-66
2021/11/04 05:47:06;;;;;;;40.13;32.28;;;10.30;99.90;;;;;;5132739;27;20218;-66
2021/11/04 05:49:33;;;;;;;44.00;33.60;;;10.30;99.90;;;;;;5133158;27;20248;-66
2021/11/04 05:52:01;;;;;;;42.15;31.92;;;10.30;99.90;;;;;;5133870;27;20221;-66
2021/11/04 05:54:29;;;;;;;43.30;32.45;;;10.40;99.90;;;;;;5133286;27;20240;-66
2021/11/04 05:56:56;;;;;;;40.72;30.27;;;10.40;99.90;;;;;;5133805;27;20233;-66
2021/11/04 05:59:24;;;;;;;44.95;33.58;;;10.50;99.90;;;;;;5133405;27;20229;-66
2021/11/04 06:01:53;;;;;;;45.50;34.85;;;10.50;99.90;;;;;;5134013;27;20214;-66
2021/11/04 06:04:20;;;;;;;47.55;33.72;;;10.50;99.90;;;;;;5133344;27;20789;-66
2021/11/04 06:06:47;;;;;;;39.00;32.20;;;10.50;99.90;;;;;;5133898;27;20298;-66
2021/11/04 06:09:15;;;;;;;41.65;32.65;;;10.50;99.90;;;;;;5133669;27;20222;-66
2021/11/04 06:11:42;;;;;;;41.55;33.33;;;10.50;99.90;;;;;;5133239;27;20233;-66
2021/11/04 06:14:09;;;;;;;42.45;33.33;;;10.50;99.90;;;;;;5133840;27;20224;-66
2021/11/04 06:16:36;;;;;;;40.38;32.00;;;10.50;99.90;;;;;;5133272;27;20222;-66
2021/11/04 06:19:03;;;;;;;48.53;35.33;;;10.50;99.90;;;;;;5133599;27;20222;-66
2021/11/04 06:21:30;;;;;;;43.13;32.53;;;10.50;99.90;;;;;;5133313;27;20229;-66
2021/11/04 06:23:57;;;;;;;47.95;34.97;;;10.50;99.90;;;;;;5133560;27;20222;-66
2021/11/04 06:26:25;;;;;;;43.00;33.65;;;10.50;99.90;;;;;;5133132;27;20222;-66
2021/11/04 06:28:52;;;;;;;45.67;33.13;;;10.50;99.90;;;;;;5133690;27;20229;-66
2021/11/04 06:31:19;;;;;;;43.95;34.13;;;10.50;99.90;;;;;;5133434;27;20238;-66
2021/11/04 06:33:46;;;;;;;46.03;34.38;;;10.50;99.90;;;;;;5133329;27;20214;-66
2021/11/04 06:36:13;;;;;;;41.63;32.40;;;10.50;99.90;;;;;;5133532;27;20225;-66
2021/11/04 06:38:40;;;;;;;41.72;33.08;;;10.50;99.90;;;;;;5132917;27;20222;-66
2021/11/04 06:41:07;;;;;;;41.53;30.33;;;10.60;99.90;;;;;;5133400;27;20218;-66
2021/11/04 06:43:35;;;;;;;42.95;33.10;;;10.60;99.90;;;;;;5133259;27;20548;-66
2021/11/04 06:46:03;;;;;;;36.53;30.95;;;10.60;99.90;;;;;;5133461;27;20229;-66
2021/11/04 06:48:42;;;;;;;45.55;33.67;;;10.60;99.90;;;;;;5133020;27;20684;-66
2021/11/04 06:51:10;;;;;;;40.13;32.97;;;10.60;99.90;;;;;;5135471;27;20554;-65
2021/11/04 06:53:42;;;;;;;41.00;31.52;;;10.50;99.90;;;;;;5136902;27;20222;-66
2021/11/04 06:56:10;;;;;;;40.53;31.80;;;10.60;99.90;;;;;;5137242;27;20229;-66
2021/11/04 06:58:39;;;;;;;43.83;32.67;;;10.60;99.90;;;;;;5136757;27;20229;-66
2021/11/04 07:01:14;;;;;;;40.47;32.08;;;10.60;99.90;;;;;;5137417;27;20217;-66
2021/11/04 07:03:47;;;;;;;40.58;32.38;;;10.60;99.90;;;;;;5136879;27;20221;-66
2021/11/04 07:06:19;;;;;;;42.75;31.33;;;10.60;99.90;;;;;;5137075;27;20222;-66
2021/11/04 07:08:55;;;;;;;43.67;32.55;;;10.60;99.90;;;;;;5136580;27;20675;-66
2021/11/04 07:11:24;;;;;;;39.90;30.17;;;10.60;99.90;;;;;;5137153;27;20229;-66
2021/11/04 07:13:53;;;;;;;45.45;34.70;;;10.60;99.90;;;;;;5136865;27;20636;-66
2021/11/04 07:16:23;;;;;;;38.60;31.80;;;10.70;99.90;;;;;;5136900;27;20229;-66
2021/11/04 07:18:54;;;;;;;46.08;33.40;;;10.70;99.90;;;;;;5136535;27;20274;-66
2021/11/04 07:21:24;;;;;;;41.55;32.15;;;10.70;99.90;;;;;;5136812;27;20226;-66
2021/11/04 07:23:58;;;;;;;42.22;33.03;;;10.70;99.90;;;;;;5136376;27;20222;-66
2021/11/04 07:26:33;;;;;;;43.65;34.97;;;10.70;99.90;;;;;;5136792;27;20249;-66
2021/11/04 07:29:02;;;;;;;44.10;31.83;;;10.70;99.90;;;;;;5136455;27;20306;-66
2021/11/04 07:31:33;;;;;;;45.53;34.05;;;10.70;99.90;;;;;;5136512;27;20691;-66
2021/11/04 07:34:02;;;;;;;41.47;32.55;;;10.80;99.90;;;;;;5136280;27;20225;-66
2021/11/04 07:36:31;;;;;;;41.33;33.63;;;10.80;99.90;;;;;;5136562;27;20229;-66
2021/11/04 07:38:59;;;;;;;46.28;34.65;;;10.80;99.90;;;;;;5136050;27;20233;-66
2021/11/04 07:41:26;;;;;;;42.38;31.15;;;10.90;99.90;;;;;;5136344;27;20222;-66
2021/11/04 07:44:01;;;;;;;41.92;32.92;;;10.90;99.90;;;;;;5136153;27;20226;-66
2021/11/04 07:46:30;;;;;;;43.08;33.22;;;10.90;99.90;;;;;;5136328;27;20221;-66
2021/11/04 07:48:59;;;;;;;43.40;33.80;;;10.90;99.90;;;;;;5135774;27;20287;-66
2021/11/04 07:51:26;;;;;;;43.38;32.95;;;10.80;99.90;;;;;;5136248;27;20236;-66
2021/11/04 07:53:53;;;;;;;46.80;31.77;;;10.60;99.90;;;;;;5135834;27;20233;-65
2021/11/04 07:56:20;;;;;;;46.80;34.20;;;10.60;99.90;;;;;;5135903;27;20221;-66
2021/11/04 07:58:47;;;;;;;41.10;32.10;;;10.60;99.90;;;;;;5135661;27;20576;-66
2021/11/04 08:01:13;;;;;;;40.10;31.95;;;10.60;99.90;;;;;;5136305;27;20226;-66
2021/11/04 08:03:43;;;;;;;44.88;33.53;;;10.60;99.90;;;;;;5134870;27;20249;-66
2021/11/04 08:06:10;;;;;;;40.95;30.98;;;10.60;99.90;;;;;;5135928;27;20242;-65
2021/11/04 08:08:37;;;;;;;41.65;32.70;;;10.60;99.90;;;;;;5135989;27;20563;-65
2021/11/04 08:11:04;;;;;;;40.90;32.08;;;10.60;99.90;;;;;;5135577;27;20217;-66
2021/11/04 08:13:31;;;;;;;45.90;34.65;;;10.60;99.90;;;;;;5135957;27;20704;-66
2021/11/04 08:15:58;;;;;;;44.88;32.28;;;10.60;99.90;;;;;;5135377;27;20226;-66
2021/11/04 08:18:25;;;;;;;48.92;34.40;;;10.60;99.90;;;;;;5135692;27;20233;-66
2021/11/04 08:20:53;;;;;;;39.58;32.28;;;10.60;99.90;;;;;;5135362;27;20233;-66
2021/11/04 08:23:20;;;;;;;41.08;31.90;;;10.60;99.90;;;;;;5135543;27;20225;-66
2021/11/04 08:25:47;;;;;;;44.45;33.30;;;10.60;99.90;;;;;;5134996;27;20266;-65
2021/11/04 08:28:14;;;;;;;44.65;35.05;;;10.50;99.90;;;;;;5135740;27;20585;-66
2021/11/04 08:30:41;;;;;;;44.45;33.03;;;10.50;99.90;;;;;;5135012;27;20222;-66
2021/11/04 08:33:08;;;;;;;52.17;36.85;;;10.50;99.90;;;;;;5135587;27;20229;-66
2021/11/04 08:35:35;;;;;;;49.17;34.83;;;10.50;99.90;;;;;;5135587;27;20226;-65
2021/11/04 08:38:03;;;;;;;48.53;35.50;;;10.50;99.90;;;;;;5135008;27;20671;-66
2021/11/04 08:40:30;;;;;;;47.55;34.65;;;10.50;99.90;;;;;;5135206;27;20237;-65
2021/11/04 08:42:58;;;;;;;47.65;36.13;;;10.50;99.90;;;;;;5134970;27;20229;-65
2021/11/04 08:45:26;;;;;;;51.08;34.67;;;10.50;99.90;;;;;;5135362;27;20226;-65
2021/11/04 08:47:53;;;;;;;48.90;35.88;;;10.50;99.90;;;;;;5134745;27;20222;-66
2021/11/04 08:50:21;;;;;;;46.42;35.40;;;10.40;99.90;;;;;;5135028;27;20234;-66
2021/11/04 08:52:52;;;;;;;52.08;36.33;;;10.40;99.90;;;;;;5134558;27;20742;-66
2021/11/04 08:55:22;;;;;;;48.38;34.97;;;10.40;99.90;;;;;;5135043;27;20618;-66
2021/11/04 08:57:50;;;;;;;50.88;35.95;;;10.50;99.90;;;;;;5134691;27;20246;-66
2021/11/04 09:00:17;;;;;;;49.65;36.53;;;10.50;99.90;;;;;;5134722;27;20222;-66
2021/11/04 09:02:44;;;;;;;45.58;34.63;;;10.50;99.90;;;;;;5134444;27;20683;-66
2021/11/04 09:05:11;;;;;;;48.30;36.20;;;10.50;99.90;;;;;;5134856;27;20229;-66
2021/11/04 09:07:39;;;;;;;45.95;33.05;;;10.50;99.90;;;;;;5134850;27;20226;-66
2021/11/04 09:10:08;;;;;;;51.25;37.08;;;10.50;99.90;;;;;;5134107;27;20569;-66
2021/11/04 09:12:38;;;;;;;51.25;37.55;;;10.40;99.90;;;;;;5134769;27;20236;-66
2021/11/04 09:15:06;;;;;;;52.45;36.53;;;10.30;99.90;;;;;;5133179;27;20238;-66
2021/11/04 09:17:33;;;;;;;48.42;35.60;;;10.30;99.90;;;;;;5134685;27;20598;-66
2021/11/04 09:20:01;;;;;;;49.88;35.28;;;10.30;99.90;;;;;;5134176;27;20222;-66
2021/11/04 09:22:28;;;;;;;45.03;32.50;;;10.30;99.90;;;;;;5134427;27;20232;-66
2021/11/04 09:24:56;;;;;;;55.05;36.63;;;10.30;99.90;;;;;;5133961;27;20222;-66
2021/11/04 09:27:23;;;;;;;53.65;36.53;;;10.30;99.90;;;;;;5134502;27;20254;-66
2021/11/04 09:29:51;;;;;;;47.38;34.67;;;10.30;99.90;;;;;;5134013;27;20225;-66
2021/11/04 09:32:19;;;;;;;52.13;34.55;;;10.30;99.90;;;;;;5134296;27;20556;-66
2021/11/04 09:34:46;;;;;;;46.65;34.13;;;10.30;99.90;;;;;;5134060;27;20347;-66
2021/11/04 09:37:13;;;;;;;45.45;33.35;;;10.30;99.90;;;;;;5134108;27;20225;-66
2021/11/04 09:39:39;;;;;;;49.70;33.67;;;10.30;99.90;;;;;;5134014;27;20687;-65
2021/11/04 09:42:07;;;;;;;42.70;32.88;;;10.30;99.90;;;;;;5133649;27;20234;-65
2021/11/04 09:44:34;;;;;;;47.10;33.22;;;10.30;99.90;;;;;;5126105;27;20218;-66
2021/11/04 09:47:03;;;;;;;43.28;31.70;;;10.30;99.90;;;;;;5113120;27;20230;-66
2021/11/04 09:49:31;;;;;;;42.15;30.77;;;10.30;99.90;;;;;;5112452;27;20241;-66
2021/11/04 09:51:57;;;;;;;39.10;27.35;;;10.20;99.90;;;;;;5112517;27;20229;-65
2021/11/04 09:54:25;;;;;;;36.33;27.90;;;10.20;99.90;;;;;;5112637;27;20219;-65
2021/11/04 09:56:52;;;;;;;33.35;27.17;;;10.20;99.90;;;;;;5112621;27;20614;-65
2021/11/04 09:59:20;;;;;;;31.58;27.17;;;10.10;99.90;;;;;;5113117;27;20696;-65
2021/11/04 10:01:48;;;;;;;34.20;26.55;;;10.10;99.90;;;;;;5112992;27;20269;-65
2021/11/04 10:04:37;;;;;;;33.78;26.65;;;10.10;99.90;;;;;;5112693;27;20648;-65
2021/11/04 10:07:04;;;;;;;33.80;25.63;;;10.00;99.90;;;;;;5130282;27;20246;-65
2021/11/04 10:09:31;;;;;;;31.70;23.55;;;10.00;99.90;;;;;;5133283;27;20232;-65
2021/11/04 10:11:58;;;;;;;35.10;26.85;;;10.00;99.90;;;;;;5133120;27;20233;-65
2021/11/04 10:14:32;;;;;;;27.15;21.70;;;10.00;99.90;;;;;;5133444;27;20225;-64
2021/11/04 10:16:59;;;;;;;25.98;20.95;;;9.90;99.90;;;;;;5130637;27;20679;-65
2021/11/04 10:19:41;;;;;;;25.88;22.20;;;10.00;99.90;;;;;;5116817;27;20568;-65
2021/11/04 10:22:08;;;;;;;27.58;22.90;;;10.00;99.90;;;;;;5131284;27;20785;-65
2021/11/04 10:24:35;;;;;;;30.70;22.42;;;10.00;99.90;;;;;;5133057;27;20225;-65
2021/11/04 10:27:02;;;;;;;25.98;20.05;;;9.90;99.90;;;;;;5136208;27;20214;-65
2021/11/04 10:29:37;;;;;;;29.20;22.50;;;9.90;99.90;;;;;;5137646;27;20268;-65
2021/11/04 10:32:05;;;;;;;30.20;23.67;;;9.90;99.90;;;;;;5136869;27;20225;-65
2021/11/04 10:34:36;;;;;;;29.55;24.17;;;9.90;99.90;;;;;;5137324;27;20682;-65
2021/11/04 10:37:11;;;;;;;27.58;23.90;;;9.90;99.90;;;;;;5136703;27;20222;-65
2021/11/04 10:39:39;;;;;;;28.75;22.52;;;9.90;99.90;;;;;;5137374;27;20556;-65
2021/11/04 10:42:11;;;;;;;32.70;26.65;;;9.90;99.90;;;;;;5136400;27;20262;-65
2021/11/04 10:44:38;;;;;;;30.75;24.92;;;9.80;99.90;;;;;;5137178;27;20256;-65
2021/11/04 10:47:05;;;;;;;26.88;23.38;;;9.80;99.90;;;;;;5135184;27;20222;-65
2021/11/04 10:49:43;;;;;;;27.27;22.60;;;9.90;99.90;;;;;;5136898;27;20225;-65
2021/11/04 10:52:10;;;;;;;23.33;20.88;;;9.90;99.90;;;;;;5126421;27;20229;-64
2021/11/04 10:54:40;;;;;;;25.10;19.45;;;9.90;99.90;;;;;;5136182;27;20229;-64
2021/11/04 10:57:07;;;;;;;21.38;19.08;;;10.00;99.90;;;;;;5127267;27;20245;-65
2021/11/04 10:59:41;;;;;;;22.05;17.90;;;9.90;99.90;;;;;;5136802;27;20260;-66
2021/11/04 11:02:08;;;;;;;24.88;20.25;;;9.90;99.90;;;;;;5122775;27;20551;-65
2021/11/04 11:04:35;;;;;;;23.85;18.45;;;10.00;99.90;;;;;;5136838;27;20222;-65
2021/11/04 11:07:04;;;;;;;20.13;17.23;;;10.00;99.90;;;;;;5136202;27;20222;-65
2021/11/04 11:09:33;;;;;;;21.20;19.05;;;10.00;99.90;;;;;;5126480;27;20231;-64
2021/11/04 11:12:04;;;;;;;20.08;17.50;;;10.00;99.90;;;;;;5119403;27;20241;-67
2021/11/04 11:14:32;;;;;;;18.85;16.85;;;10.10;99.90;;;;;;5135435;27;20676;-64
2021/11/04 11:17:01;;;;;;;18.52;15.30;;;10.00;99.90;;;;;;5136262;27;20268;-64
2021/11/04 11:19:30;;;;;;;20.10;15.50;;;10.00;99.90;;;;;;5136534;27;20226;-64
2021/11/04 11:21:58;;;;;;;17.52;14.60;;;10.00;99.90;;;;;;5130113;27;20285;-64
2021/11/04 11:24:32;;;;;;;20.08;16.48;;;10.00;99.90;;;;;;5127430;27;20226;-64
2021/11/04 11:27:01;;;;;;;21.48;17.38;;;9.90;99.90;;;;;;5121150;27;20242;-64
2021/11/04 11:29:33;;;;;;;25.73;20.60;;;10.00;99.90;;;;;;5136166;27;20233;-64
2021/11/04 11:32:01;;;;;;;28.50;22.67;;;10.00;99.90;;;;;;5135876;27;20226;-65
2021/11/04 11:34:29;;;;;;;24.95;20.70;;;10.00;99.90;;;;;;5136337;27;20225;-65
2021/11/04 11:37:16;;;;;;;37.00;30.25;;;10.00;99.90;;;;;;5135131;27;20222;-66
2021/11/04 11:39:47;;;;;;;43.80;33.40;;;10.00;99.90;;;;;;5135940;27;20217;-64
2021/11/04 11:42:19;;;;;;;34.53;25.15;;;10.10;99.90;;;;;;5136124;27;20233;-64
2021/11/04 11:44:55;;;;;;;27.33;22.27;;;10.10;99.90;;;;;;5135685;27;20230;-65
2021/11/04 11:47:34;;;;;;;24.10;18.98;;;10.10;99.90;;;;;;5136171;27;20225;-65
2021/11/04 11:50:25;;;;;;;24.67;21.00;;;10.10;99.90;;;;;;5135083;27;20234;-64
2021/11/04 11:52:54;;;;;;;20.20;16.40;;;10.20;99.90;;;;;;5135574;27;20222;-64
2021/11/04 11:55:25;;;;;;;18.50;14.20;;;10.20;99.90;;;;;;5133740;27;20591;-64
2021/11/04 11:58:32;;;;;;;16.98;13.95;;;10.20;99.90;;;;;;5134921;27;20226;-64
2021/11/04 12:01:05;;;;;;;18.88;15.25;;;10.20;99.90;;;;;;5135347;27;20316;-65
2021/11/04 12:03:49;;;;;;;14.80;13.23;;;10.20;99.90;;;;;;5135722;27;20234;-64
2021/11/04 12:06:42;;;;;;;15.27;13.60;;;10.20;99.90;;;;;;5128865;27;20218;-64
2021/11/04 12:09:10;;;;;;;19.13;13.45;;;10.20;99.90;;;;;;5118514;27;20225;-65
2021/11/04 12:11:43;;;;;;;18.55;15.45;;;10.20;99.90;;;;;;5132356;27;20218;-65
2021/11/04 12:14:29;;;;;;;15.15;12.50;;;10.20;99.90;;;;;;5134851;27;20218;-65
2021/11/04 12:17:14;;;;;;;15.40;13.70;;;10.20;99.90;;;;;;5129063;27;20225;-66
2021/11/04 12:19:44;;;;;;;14.32;12.45;;;10.30;99.90;;;;;;5118459;27;20268;-66
2021/11/04 12:22:12;;;;;;;14.23;12.82;;;10.30;99.90;;;;;;5125992;27;20237;-65
2021/11/04 12:24:48;;;;;;;13.23;11.82;;;10.30;99.90;;;;;;5134954;27;20268;-65
2021/11/04 12:27:17;;;;;;;18.42;14.48;;;10.30;99.90;;;;;;5116420;27;20218;-65
2021/11/04 12:29:46;;;;;;;14.55;12.95;;;10.30;99.90;;;;;;5133425;27;20264;-65
2021/11/04 12:32:13;;;;;;;14.55;12.63;;;10.30;99.90;;;;;;5134118;27;20217;-64
2021/11/04 12:34:41;;;;;;;16.70;12.65;;;10.30;99.90;;;;;;5134759;27;20225;-65
2021/11/04 12:37:11;;;;;;;13.20;11.70;;;10.30;99.90;;;;;;5134681;27;20321;-65